sensor_id;sensor_type;location;lat;lon;timestamp;pressure;altitude;pressure_sealevel;temperature;humidity
32131;BME280;18639;50.716;7.086;2023-03-11T00:00:19;99399.00;;;2.94;100.00
32131;BME280;18639;50.716;7.086;2023-03-11T00:02:47;99406.00;;;2.90;100.00
32131;BME280;18639;50.716;7.086;2023-03-11T00:05:20;99400.22;;;2.87;100.00
32131;BME280;18639;50.716;7.086;2023-03-11T00:07:46;99402.25;;;2.97;100.00
32131;BME280;18639;50.716;7.086;2023-03-11T00:10:16;99410.66;;;3.00;100.00
32131;BME280;18639;50.716;7.086;2023-03-11T00:12:42;99405.09;;;2.91;100.00
32131;BME280;18639;50.716;7.086;2023-03-11T00:15:08;99413.13;;;3.01;100.00
32131;BME280;18639;50.716;7.086;2023-03-11T00:17:33;99392.19;;;2.94;100.00
32131;BME280;18639;50.716;7.086;2023-03-11T00:19:58;99369.59;;;2.70;100.00
32131;BME280;18639;50.716;7.086;2023-03-11T00:22:24;99349.63;;;2.78;100.00
32131;BME280;18639;50.716;7.086;2023-03-11T00:24:49;99421.09;;;3.12;100.00
32131;BME280;18639;50.716;7.086;2023-03-11T00:27:14;99402.09;;;3.01;100.00
32131;BME280;18639;50.716;7.086;2023-03-11T00:29:40;99392.63;;;2.85;100.00
32131;BME280;18639;50.716;7.086;2023-03-11T00:32:05;99367.78;;;2.89;100.00
32131;BME280;18639;50.716;7.086;2023-03-11T00:34:30;99426.97;;;3.14;100.00
32131;BME280;18639;50.716;7.086;2023-03-11T00:36:56;99426.34;;;3.09;100.00
32131;BME280;18639;50.716;7.086;2023-03-11T00:39:21;99423.09;;;3.06;100.00
32131;BME280;18639;50.716;7.086;2023-03-11T00:41:47;99440.38;;;3.18;100.00
32131;BME280;18639;50.716;7.086;2023-03-11T00:44:12;99426.72;;;3.02;100.00
32131;BME280;18639;50.716;7.086;2023-03-11T00:46:37;99453.22;;;3.16;100.00
32131;BME280;18639;50.716;7.086;2023-03-11T00:49:03;99411.56;;;2.81;100.00
32131;BME280;18639;50.716;7.086;2023-03-11T00:51:28;99451.88;;;3.09;100.00
32131;BME280;18639;50.716;7.086;2023-03-11T00:53:54;99453.22;;;3.16;100.00
32131;BME280;18639;50.716;7.086;2023-03-11T00:56:20;99421.38;;;2.89;100.00
32131;BME280;18639;50.716;7.086;2023-03-11T00:58:45;99448.84;;;3.01;100.00
32131;BME280;18639;50.716;7.086;2023-03-11T01:01:13;99471.91;;;3.17;100.00
32131;BME280;18639;50.716;7.086;2023-03-11T01:03:39;99476.56;;;3.09;100.00
32131;BME280;18639;50.716;7.086;2023-03-11T01:06:29;99472.13;;;3.12;100.00
32131;BME280;18639;50.716;7.086;2023-03-11T01:08:54;99478.63;;;3.01;100.00
32131;BME280;18639;50.716;7.086;2023-03-11T01:11:19;99462.19;;;2.89;100.00
32131;BME280;18639;50.716;7.086;2023-03-11T01:13:45;99460.56;;;2.88;100.00
32131;BME280;18639;50.716;7.086;2023-03-11T01:16:10;99478.94;;;2.94;100.00
32131;BME280;18639;50.716;7.086;2023-03-11T01:18:35;99489.97;;;2.95;100.00
32131;BME280;18639;50.716;7.086;2023-03-11T01:21:00;99441.78;;;2.53;100.00
32131;BME280;18639;50.716;7.086;2023-03-11T01:23:26;99470.94;;;2.83;100.00
32131;BME280;18639;50.716;7.086;2023-03-11T01:25:51;99470.88;;;2.85;100.00
32131;BME280;18639;50.716;7.086;2023-03-11T01:28:17;99463.00;;;2.72;100.00
32131;BME280;18639;50.716;7.086;2023-03-11T01:30:43;99485.97;;;2.89;100.00
32131;BME280;18639;50.716;7.086;2023-03-11T01:33:14;99466.28;;;2.74;100.00
32131;BME280;18639;50.716;7.086;2023-03-11T01:35:40;99488.00;;;2.83;100.00
32131;BME280;18639;50.716;7.086;2023-03-11T01:38:06;99506.31;;;2.91;100.00
32131;BME280;18639;50.716;7.086;2023-03-11T01:40:43;99501.72;;;2.80;100.00
32131;BME280;18639;50.716;7.086;2023-03-11T01:43:46;99510.53;;;2.92;100.00
32131;BME280;18639;50.716;7.086;2023-03-11T01:46:36;99497.00;;;2.90;100.00
32131;BME280;18639;50.716;7.086;2023-03-11T01:49:03;99488.53;;;2.89;100.00
32131;BME280;18639;50.716;7.086;2023-03-11T01:51:36;99504.31;;;2.97;100.00
32131;BME280;18639;50.716;7.086;2023-03-11T01:54:05;99502.38;;;3.03;100.00
32131;BME280;18639;50.716;7.086;2023-03-11T01:56:31;99504.16;;;3.01;100.00
32131;BME280;18639;50.716;7.086;2023-03-11T01:58:57;99498.50;;;2.94;100.00
32131;BME280;18639;50.716;7.086;2023-03-11T02:01:22;99490.13;;;2.92;100.00
32131;BME280;18639;50.716;7.086;2023-03-11T02:03:48;99503.88;;;3.07;100.00
32131;BME280;18639;50.716;7.086;2023-03-11T02:06:20;99500.88;;;2.99;100.00
32131;BME280;18639;50.716;7.086;2023-03-11T02:08:45;99480.19;;;2.86;100.00
32131;BME280;18639;50.716;7.086;2023-03-11T02:11:21;99493.72;;;2.88;100.00
32131;BME280;18639;50.716;7.086;2023-03-11T02:13:49;99516.63;;;3.07;100.00
32131;BME280;18639;50.716;7.086;2023-03-11T02:16:15;99484.47;;;2.85;100.00
32131;BME280;18639;50.716;7.086;2023-03-11T02:18:41;99508.72;;;2.94;100.00
32131;BME280;18639;50.716;7.086;2023-03-11T02:21:28;99522.78;;;3.03;100.00
32131;BME280;18639;50.716;7.086;2023-03-11T02:29:10;99517.13;;;2.96;100.00
32131;BME280;18639;50.716;7.086;2023-03-11T02:31:37;99518.78;;;2.97;100.00
32131;BME280;18639;50.716;7.086;2023-03-11T02:34:04;99523.06;;;2.96;100.00
32131;BME280;18639;50.716;7.086;2023-03-11T02:36:41;99507.97;;;2.92;100.00
32131;BME280;18639;50.716;7.086;2023-03-11T02:39:07;99527.00;;;3.04;100.00
32131;BME280;18639;50.716;7.086;2023-03-11T02:41:36;99492.13;;;2.85;100.00
32131;BME280;18639;50.716;7.086;2023-03-11T02:44:04;99528.78;;;3.02;100.00
32131;BME280;18639;50.716;7.086;2023-03-11T02:46:30;99501.16;;;2.92;100.00
32131;BME280;18639;50.716;7.086;2023-03-11T02:48:56;99518.63;;;3.00;100.00
32131;BME280;18639;50.716;7.086;2023-03-11T02:51:22;99511.66;;;2.86;100.00
32131;BME280;18639;50.716;7.086;2023-03-11T02:53:50;99504.09;;;2.66;100.00
32131;BME280;18639;50.716;7.086;2023-03-11T02:56:17;99523.91;;;2.78;100.00
32131;BME280;18639;50.716;7.086;2023-03-11T02:58:42;99525.28;;;2.85;100.00
32131;BME280;18639;50.716;7.086;2023-03-11T03:01:07;99494.59;;;2.51;100.00
32131;BME280;18639;50.716;7.086;2023-03-11T03:03:43;99528.13;;;2.79;100.00
32131;BME280;18639;50.716;7.086;2023-03-11T03:06:09;99525.78;;;2.75;100.00
32131;BME280;18639;50.716;7.086;2023-03-11T03:08:34;99536.16;;;2.89;100.00
32131;BME280;18639;50.716;7.086;2023-03-11T03:10:59;99520.75;;;2.73;100.00
32131;BME280;18639;50.716;7.086;2023-03-11T03:13:26;99536.25;;;2.87;100.00
32131;BME280;18639;50.716;7.086;2023-03-11T03:15:51;99534.81;;;2.82;100.00
32131;BME280;18639;50.716;7.086;2023-03-11T03:18:17;99534.13;;;2.78;100.00
32131;BME280;18639;50.716;7.086;2023-03-11T03:20:42;99544.19;;;2.81;100.00
32131;BME280;18639;50.716;7.086;2023-03-11T03:23:08;99527.94;;;2.65;100.00
32131;BME280;18639;50.716;7.086;2023-03-11T03:25:33;99540.53;;;2.68;100.00
32131;BME280;18639;50.716;7.086;2023-03-11T03:27:59;99493.06;;;2.47;100.00
32131;BME280;18639;50.716;7.086;2023-03-11T03:30:24;99536.03;;;2.73;100.00
32131;BME280;18639;50.716;7.086;2023-03-11T03:32:49;99514.50;;;2.43;100.00
32131;BME280;18639;50.716;7.086;2023-03-11T03:35:15;99511.47;;;2.35;100.00
32131;BME280;18639;50.716;7.086;2023-03-11T03:37:40;99556.09;;;2.62;100.00
32131;BME280;18639;50.716;7.086;2023-03-11T03:40:06;99542.63;;;2.60;100.00
32131;BME280;18639;50.716;7.086;2023-03-11T03:42:33;99563.03;;;2.60;100.00
32131;BME280;18639;50.716;7.086;2023-03-11T03:44:59;99557.84;;;2.43;100.00
32131;BME280;18639;50.716;7.086;2023-03-11T03:47:24;99539.38;;;2.38;100.00
32131;BME280;18639;50.716;7.086;2023-03-11T03:49:49;99542.13;;;2.33;100.00
32131;BME280;18639;50.716;7.086;2023-03-11T03:52:14;99534.53;;;2.32;100.00
32131;BME280;18639;50.716;7.086;2023-03-11T03:54:40;99495.09;;;2.01;100.00
32131;BME280;18639;50.716;7.086;2023-03-11T03:57:05;99567.34;;;2.39;100.00
32131;BME280;18639;50.716;7.086;2023-03-11T03:59:30;99546.44;;;2.13;100.00
32131;BME280;18639;50.716;7.086;2023-03-11T04:01:56;99544.81;;;2.10;100.00
32131;BME280;18639;50.716;7.086;2023-03-11T04:04:21;99582.19;;;2.30;100.00
32131;BME280;18639;50.716;7.086;2023-03-11T04:06:46;99575.66;;;2.24;100.00
32131;BME280;18639;50.716;7.086;2023-03-11T04:09:12;99591.69;;;2.26;100.00
32131;BME280;18639;50.716;7.086;2023-03-11T04:11:37;99569.47;;;2.09;100.00
32131;BME280;18639;50.716;7.086;2023-03-11T04:14:04;99543.00;;;1.93;100.00
32131;BME280;18639;50.716;7.086;2023-03-11T04:16:30;99599.41;;;2.25;100.00
32131;BME280;18639;50.716;7.086;2023-03-11T04:18:55;99587.94;;;2.15;100.00
32131;BME280;18639;50.716;7.086;2023-03-11T04:21:20;99581.84;;;1.98;100.00
32131;BME280;18639;50.716;7.086;2023-03-11T04:23:46;99576.34;;;1.87;100.00
32131;BME280;18639;50.716;7.086;2023-03-11T04:26:11;99583.25;;;1.85;100.00
32131;BME280;18639;50.716;7.086;2023-03-11T04:28:37;99599.16;;;1.90;100.00
32131;BME280;18639;50.716;7.086;2023-03-11T04:31:03;99610.78;;;1.97;100.00
32131;BME280;18639;50.716;7.086;2023-03-11T04:33:28;99599.28;;;1.87;100.00
32131;BME280;18639;50.716;7.086;2023-03-11T04:35:53;99599.41;;;1.84;100.00
32131;BME280;18639;50.716;7.086;2023-03-11T04:38:19;99587.06;;;1.75;100.00
32131;BME280;18639;50.716;7.086;2023-03-11T04:40:44;99592.09;;;1.77;100.00
32131;BME280;18639;50.716;7.086;2023-03-11T04:43:09;99598.25;;;1.71;100.00
32131;BME280;18639;50.716;7.086;2023-03-11T04:45:40;99603.44;;;1.69;100.00
32131;BME280;18639;50.716;7.086;2023-03-11T04:48:07;99622.19;;;1.87;100.00
32131;BME280;18639;50.716;7.086;2023-03-11T04:50:32;99616.66;;;1.78;100.00
32131;BME280;18639;50.716;7.086;2023-03-11T04:52:58;99631.41;;;1.91;100.00
32131;BME280;18639;50.716;7.086;2023-03-11T04:55:23;99601.56;;;1.73;100.00
32131;BME280;18639;50.716;7.086;2023-03-11T04:57:49;99624.00;;;1.85;100.00
32131;BME280;18639;50.716;7.086;2023-03-11T05:00:14;99618.38;;;1.77;100.00
32131;BME280;18639;50.716;7.086;2023-03-11T05:02:40;99629.19;;;1.82;100.00
32131;BME280;18639;50.716;7.086;2023-03-11T05:05:07;99620.72;;;1.82;100.00
32131;BME280;18639;50.716;7.086;2023-03-11T05:07:33;99608.56;;;1.68;100.00
32131;BME280;18639;50.716;7.086;2023-03-11T05:09:59;99622.53;;;1.80;100.00
32131;BME280;18639;50.716;7.086;2023-03-11T05:12:24;99632.66;;;1.81;100.00
32131;BME280;18639;50.716;7.086;2023-03-11T05:14:49;99593.44;;;1.65;100.00
32131;BME280;18639;50.716;7.086;2023-03-11T05:17:15;99610.88;;;1.74;100.00
32131;BME280;18639;50.716;7.086;2023-03-11T05:19:42;99614.25;;;1.75;100.00
32131;BME280;18639;50.716;7.086;2023-03-11T05:22:08;99628.56;;;1.77;100.00
32131;BME280;18639;50.716;7.086;2023-03-11T05:24:33;99635.50;;;1.74;100.00
32131;BME280;18639;50.716;7.086;2023-03-11T05:26:59;99616.81;;;1.53;100.00
32131;BME280;18639;50.716;7.086;2023-03-11T05:29:24;99646.63;;;1.71;100.00
32131;BME280;18639;50.716;7.086;2023-03-11T05:31:50;99653.69;;;1.64;100.00
32131;BME280;18639;50.716;7.086;2023-03-11T05:34:16;99656.94;;;1.68;100.00
32131;BME280;18639;50.716;7.086;2023-03-11T05:36:49;99664.44;;;1.71;100.00
32131;BME280;18639;50.716;7.086;2023-03-11T05:39:18;99659.97;;;1.56;100.00
32131;BME280;18639;50.716;7.086;2023-03-11T05:41:43;99646.53;;;1.52;100.00
32131;BME280;18639;50.716;7.086;2023-03-11T05:44:08;99620.69;;;1.41;100.00
32131;BME280;18639;50.716;7.086;2023-03-11T05:46:34;99654.63;;;1.62;100.00
32131;BME280;18639;50.716;7.086;2023-03-11T05:48:59;99669.44;;;1.74;100.00
32131;BME280;18639;50.716;7.086;2023-03-11T05:51:24;99641.59;;;1.49;100.00
32131;BME280;18639;50.716;7.086;2023-03-11T05:53:50;99667.25;;;1.65;100.00
32131;BME280;18639;50.716;7.086;2023-03-11T05:56:17;99681.28;;;1.75;100.00
32131;BME280;18639;50.716;7.086;2023-03-11T05:58:43;99672.03;;;1.73;100.00
32131;BME280;18639;50.716;7.086;2023-03-11T06:01:09;99657.91;;;1.65;100.00
32131;BME280;18639;50.716;7.086;2023-03-11T06:03:36;99688.63;;;1.83;100.00
32131;BME280;18639;50.716;7.086;2023-03-11T06:06:01;99667.00;;;1.71;100.00
32131;BME280;18639;50.716;7.086;2023-03-11T06:08:28;99681.28;;;1.75;100.00
32131;BME280;18639;50.716;7.086;2023-03-11T06:11:00;99693.00;;;1.79;100.00
32131;BME280;18639;50.716;7.086;2023-03-11T06:13:26;99673.47;;;1.80;100.00
32131;BME280;18639;50.716;7.086;2023-03-11T06:15:51;99682.69;;;1.82;100.00
32131;BME280;18639;50.716;7.086;2023-03-11T06:18:16;99680.91;;;1.84;100.00
32131;BME280;18639;50.716;7.086;2023-03-11T06:20:41;99655.75;;;1.77;100.00
32131;BME280;18639;50.716;7.086;2023-03-11T06:23:08;99683.88;;;1.95;100.00
32131;BME280;18639;50.716;7.086;2023-03-11T06:25:33;99668.59;;;1.95;100.00
32131;BME280;18639;50.716;7.086;2023-03-11T06:27:58;99679.91;;;2.08;100.00
32131;BME280;18639;50.716;7.086;2023-03-11T06:30:24;99688.22;;;2.14;100.00
32131;BME280;18639;50.716;7.086;2023-03-11T06:32:49;99671.63;;;2.03;100.00
32131;BME280;18639;50.716;7.086;2023-03-11T06:35:15;99693.06;;;2.20;100.00
32131;BME280;18639;50.716;7.086;2023-03-11T06:37:40;99704.59;;;2.48;100.00
32131;BME280;18639;50.716;7.086;2023-03-11T06:40:07;99718.56;;;2.60;100.00
32131;BME280;18639;50.716;7.086;2023-03-11T06:42:33;99703.38;;;2.57;100.00
32131;BME280;18639;50.716;7.086;2023-03-11T06:44:58;99716.41;;;2.71;100.00
32131;BME280;18639;50.716;7.086;2023-03-11T06:47:23;99712.13;;;2.72;100.00
32131;BME280;18639;50.716;7.086;2023-03-11T06:49:50;99729.81;;;2.95;100.00
32131;BME280;18639;50.716;7.086;2023-03-11T06:52:15;99706.97;;;2.92;100.00
32131;BME280;18639;50.716;7.086;2023-03-11T06:54:40;99709.53;;;2.92;100.00
32131;BME280;18639;50.716;7.086;2023-03-11T06:57:07;99733.03;;;3.19;100.00
32131;BME280;18639;50.716;7.086;2023-03-11T06:59:33;99739.63;;;3.23;98.94
32131;BME280;18639;50.716;7.086;2023-03-11T07:01:58;99734.69;;;3.20;96.69
32131;BME280;18639;50.716;7.086;2023-03-11T07:04:23;99740.47;;;3.23;97.46
32131;BME280;18639;50.716;7.086;2023-03-11T07:06:49;99743.22;;;3.19;97.94
32131;BME280;18639;50.716;7.086;2023-03-11T07:09:14;99747.91;;;3.28;96.34
32131;BME280;18639;50.716;7.086;2023-03-11T07:11:39;99722.81;;;3.19;95.97
32131;BME280;18639;50.716;7.086;2023-03-11T07:14:04;99760.47;;;3.32;93.50
32131;BME280;18639;50.716;7.086;2023-03-11T07:16:30;99773.38;;;3.48;94.68
32131;BME280;18639;50.716;7.086;2023-03-11T07:18:58;99782.03;;;3.46;93.09
32131;BME280;18639;50.716;7.086;2023-03-11T07:21:26;99791.69;;;3.39;93.92
32131;BME280;18639;50.716;7.086;2023-03-11T07:23:53;99776.34;;;3.39;93.26
32131;BME280;18639;50.716;7.086;2023-03-11T07:26:19;99792.94;;;3.49;93.81
32131;BME280;18639;50.716;7.086;2023-03-11T07:28:45;99740.56;;;3.02;94.68
32131;BME280;18639;50.716;7.086;2023-03-11T07:31:21;99787.97;;;3.46;94.52
32131;BME280;18639;50.716;7.086;2023-03-11T07:33:47;99813.88;;;3.57;93.84
32131;BME280;18639;50.716;7.086;2023-03-11T07:36:18;99819.44;;;3.65;93.28
32131;BME280;18639;50.716;7.086;2023-03-11T07:38:44;99818.19;;;3.55;91.72
32131;BME280;18639;50.716;7.086;2023-03-11T07:41:10;99815.69;;;3.54;91.42
32131;BME280;18639;50.716;7.086;2023-03-11T07:43:37;99793.19;;;3.24;92.91
32131;BME280;18639;50.716;7.086;2023-03-11T07:48:31;99815.16;;;3.47;95.35
32131;BME280;18639;50.716;7.086;2023-03-11T07:51:10;99833.09;;;3.64;94.76
32131;BME280;18639;50.716;7.086;2023-03-11T07:53:36;99841.91;;;3.77;94.12
32131;BME280;18639;50.716;7.086;2023-03-11T07:56:02;99844.31;;;3.99;95.90
32131;BME280;18639;50.716;7.086;2023-03-11T07:58:28;99846.50;;;4.07;92.66
32131;BME280;18639;50.716;7.086;2023-03-11T08:00:53;99849.38;;;4.18;94.45
32131;BME280;18639;50.716;7.086;2023-03-11T08:03:22;99851.03;;;4.38;92.31
32131;BME280;18639;50.716;7.086;2023-03-11T08:05:47;99837.91;;;4.27;89.27
32131;BME280;18639;50.716;7.086;2023-03-11T08:08:13;99837.09;;;4.26;87.98
32131;BME280;18639;50.716;7.086;2023-03-11T08:10:38;99853.53;;;4.56;86.13
32131;BME280;18639;50.716;7.086;2023-03-11T08:13:04;99852.06;;;4.70;86.67
32131;BME280;18639;50.716;7.086;2023-03-11T08:15:29;99807.03;;;4.48;85.14
32131;BME280;18639;50.716;7.086;2023-03-11T08:17:55;99860.47;;;4.89;85.84
32131;BME280;18639;50.716;7.086;2023-03-11T08:20:20;99798.31;;;4.70;84.85
32131;BME280;18639;50.716;7.086;2023-03-11T08:22:45;99818.03;;;5.02;84.59
32131;BME280;18639;50.716;7.086;2023-03-11T08:25:11;99846.78;;;5.73;80.83
32131;BME280;18639;50.716;7.086;2023-03-11T08:27:36;99842.69;;;6.33;78.13
32131;BME280;18639;50.716;7.086;2023-03-11T08:30:03;99818.81;;;6.76;72.97
32131;BME280;18639;50.716;7.086;2023-03-11T08:32:29;99808.59;;;7.33;75.39
32131;BME280;18639;50.716;7.086;2023-03-11T08:34:56;99838.47;;;8.05;67.36
32131;BME280;18639;50.716;7.086;2023-03-11T08:37:21;99828.94;;;8.34;61.05
32131;BME280;18639;50.716;7.086;2023-03-11T08:39:46;99852.31;;;9.10;60.75
32131;BME280;18639;50.716;7.086;2023-03-11T08:42:12;99851.03;;;9.79;61.00
32131;BME280;18639;50.716;7.086;2023-03-11T08:44:37;99849.41;;;10.50;56.34
32131;BME280;18639;50.716;7.086;2023-03-11T08:47:03;99842.81;;;10.81;54.46
32131;BME280;18639;50.716;7.086;2023-03-11T08:49:28;99843.75;;;11.49;52.68
32131;BME280;18639;50.716;7.086;2023-03-11T08:51:54;99833.88;;;11.76;47.24
32131;BME280;18639;50.716;7.086;2023-03-11T08:54:19;99854.88;;;12.38;48.63
32131;BME280;18639;50.716;7.086;2023-03-11T08:56:44;99855.09;;;12.67;45.19
32131;BME280;18639;50.716;7.086;2023-03-11T08:59:12;99816.34;;;12.65;46.59
32131;BME280;18639;50.716;7.086;2023-03-11T09:01:37;99866.81;;;13.35;43.44
32131;BME280;18639;50.716;7.086;2023-03-11T09:04:03;99861.66;;;13.44;45.69
32131;BME280;18639;50.716;7.086;2023-03-11T09:06:28;99824.97;;;13.68;45.12
32131;BME280;18639;50.716;7.086;2023-03-11T09:08:54;99872.16;;;13.73;42.36
32131;BME280;18639;50.716;7.086;2023-03-11T09:11:19;99841.16;;;13.00;43.27
32131;BME280;18639;50.716;7.086;2023-03-11T09:13:46;99872.16;;;12.81;44.89
32131;BME280;18639;50.716;7.086;2023-03-11T09:16:14;99849.19;;;11.68;46.37
32131;BME280;18639;50.716;7.086;2023-03-11T09:18:39;99858.84;;;10.97;46.82
32131;BME280;18639;50.716;7.086;2023-03-11T09:21:05;99850.50;;;10.35;44.95
32131;BME280;18639;50.716;7.086;2023-03-11T09:23:30;99853.81;;;11.18;45.72
32131;BME280;18639;50.716;7.086;2023-03-11T09:25:55;99849.25;;;12.22;44.83
32131;BME280;18639;50.716;7.086;2023-03-11T09:28:21;99852.03;;;12.94;44.57
32131;BME280;18639;50.716;7.086;2023-03-11T09:30:46;99835.91;;;13.32;41.24
32131;BME280;18639;50.716;7.086;2023-03-11T09:33:11;99831.97;;;13.37;39.22
32131;BME280;18639;50.716;7.086;2023-03-11T09:35:37;99857.47;;;12.70;40.87
32131;BME280;18639;50.716;7.086;2023-03-11T09:38:03;99850.09;;;11.56;42.05
32131;BME280;18639;50.716;7.086;2023-03-11T09:40:52;99824.06;;;10.55;46.95
32131;BME280;18639;50.716;7.086;2023-03-11T09:49:20;99868.72;;;7.59;50.74
32131;BME280;18639;50.716;7.086;2023-03-11T09:52:11;99873.88;;;7.31;52.13
32131;BME280;18639;50.716;7.086;2023-03-11T09:54:40;99879.00;;;6.87;54.94
32131;BME280;18639;50.716;7.086;2023-03-11T09:57:11;99883.41;;;6.39;57.13
32131;BME280;18639;50.716;7.086;2023-03-11T09:59:39;99893.25;;;6.15;56.45
32131;BME280;18639;50.716;7.086;2023-03-11T10:02:11;99858.66;;;5.91;57.55
32131;BME280;18639;50.716;7.086;2023-03-11T10:04:44;99882.47;;;5.93;57.34
32131;BME280;18639;50.716;7.086;2023-03-11T10:07:20;99898.88;;;6.22;57.09
32131;BME280;18639;50.716;7.086;2023-03-11T10:09:55;99899.97;;;6.79;60.74
32131;BME280;18639;50.716;7.086;2023-03-11T10:15:22;99898.41;;;7.79;52.36
32131;BME280;18639;50.716;7.086;2023-03-11T10:21:24;99908.84;;;9.38;50.43
32131;BME280;18639;50.716;7.086;2023-03-11T10:24:17;99922.06;;;9.34;45.11
32131;BME280;18639;50.716;7.086;2023-03-11T10:26:56;99922.13;;;8.80;46.44
32131;BME280;18639;50.716;7.086;2023-03-11T10:29:41;99905.25;;;8.21;48.21
32131;BME280;18639;50.716;7.086;2023-03-11T10:32:17;99903.84;;;7.74;47.26
32131;BME280;18639;50.716;7.086;2023-03-11T10:34:55;99922.56;;;7.62;47.79
32131;BME280;18639;50.716;7.086;2023-03-11T10:37:25;99915.22;;;7.12;48.57
32131;BME280;18639;50.716;7.086;2023-03-11T10:39:52;99903.63;;;6.75;51.32
32131;BME280;18639;50.716;7.086;2023-03-11T10:42:27;99934.44;;;6.75;50.39
32131;BME280;18639;50.716;7.086;2023-03-11T10:44:53;99917.16;;;6.47;50.38
32131;BME280;18639;50.716;7.086;2023-03-11T10:47:20;99939.34;;;6.32;50.85
32131;BME280;18639;50.716;7.086;2023-03-11T10:49:47;99895.97;;;6.44;51.67
32131;BME280;18639;50.716;7.086;2023-03-11T10:52:12;99937.84;;;7.05;52.67
32131;BME280;18639;50.716;7.086;2023-03-11T10:54:40;99893.19;;;7.08;52.84
32131;BME280;18639;50.716;7.086;2023-03-11T10:57:32;99935.59;;;7.59;52.71
32131;BME280;18639;50.716;7.086;2023-03-11T11:00:01;99903.25;;;7.41;51.80
32131;BME280;18639;50.716;7.086;2023-03-11T11:02:30;99917.06;;;7.82;53.33
32131;BME280;18639;50.716;7.086;2023-03-11T11:07:40;99923.47;;;7.61;51.28
32131;BME280;18639;50.716;7.086;2023-03-11T11:10:15;99925.78;;;7.66;52.76
32131;BME280;18639;50.716;7.086;2023-03-11T11:13:01;99915.97;;;7.58;53.93
32131;BME280;18639;50.716;7.086;2023-03-11T11:17:56;99898.63;;;7.17;53.81
32131;BME280;18639;50.716;7.086;2023-03-11T11:20:23;99910.56;;;7.33;53.70
32131;BME280;18639;50.716;7.086;2023-03-11T11:22:58;99902.56;;;7.09;52.24
32131;BME280;18639;50.716;7.086;2023-03-11T11:27:55;99906.31;;;7.03;52.41
32131;BME280;18639;50.716;7.086;2023-03-11T11:30:21;99864.44;;;6.87;53.02
32131;BME280;18639;50.716;7.086;2023-03-11T11:32:48;99880.00;;;6.84;52.89
32131;BME280;18639;50.716;7.086;2023-03-11T11:35:19;99912.75;;;7.10;54.33
32131;BME280;18639;50.716;7.086;2023-03-11T11:37:53;99921.03;;;7.00;52.31
32131;BME280;18639;50.716;7.086;2023-03-11T11:40:26;99883.44;;;6.69;53.60
32131;BME280;18639;50.716;7.086;2023-03-11T11:43:00;99905.44;;;6.89;51.85
32131;BME280;18639;50.716;7.086;2023-03-11T11:45:37;99917.00;;;6.96;52.11
32131;BME280;18639;50.716;7.086;2023-03-11T11:48:18;99845.03;;;6.52;52.27
32131;BME280;18639;50.716;7.086;2023-03-11T11:50:51;99889.69;;;6.79;52.42
32131;BME280;18639;50.716;7.086;2023-03-11T11:53:48;99922.41;;;6.91;51.94
32131;BME280;18639;50.716;7.086;2023-03-11T11:56:16;99907.25;;;6.57;49.54
32131;BME280;18639;50.716;7.086;2023-03-11T11:58:45;99916.47;;;6.75;51.79
32131;BME280;18639;50.716;7.086;2023-03-11T12:01:20;99931.31;;;7.00;52.16
32131;BME280;18639;50.716;7.086;2023-03-11T12:06:30;99927.63;;;7.19;52.49
32131;BME280;18639;50.716;7.086;2023-03-11T12:14:42;99873.63;;;7.05;50.72
32131;BME280;18639;50.716;7.086;2023-03-11T12:17:12;99914.50;;;7.10;48.58
32131;BME280;18639;50.716;7.086;2023-03-11T12:20:00;99921.88;;;7.30;50.68
32131;BME280;18639;50.716;7.086;2023-03-11T12:25:59;99917.22;;;7.51;50.52
32131;BME280;18639;50.716;7.086;2023-03-11T12:31:10;99926.47;;;7.25;47.60
32131;BME280;18639;50.716;7.086;2023-03-11T12:33:47;99925.06;;;7.19;49.36
32131;BME280;18639;50.716;7.086;2023-03-11T12:36:33;99914.31;;;7.27;49.53
32131;BME280;18639;50.716;7.086;2023-03-11T12:39:02;99928.28;;;7.37;48.10
32131;BME280;18639;50.716;7.086;2023-03-11T12:41:39;99918.81;;;7.24;47.56
32131;BME280;18639;50.716;7.086;2023-03-11T12:44:28;99929.66;;;7.14;47.24
32131;BME280;18639;50.716;7.086;2023-03-11T12:49:23;99923.53;;;7.01;46.10
32131;BME280;18639;50.716;7.086;2023-03-11T12:54:30;99919.28;;;6.86;47.53
32131;BME280;18639;50.716;7.086;2023-03-11T13:00:05;99920.75;;;7.20;49.80
32131;BME280;18639;50.716;7.086;2023-03-11T13:05:34;99893.81;;;7.41;48.94
32131;BME280;18639;50.716;7.086;2023-03-11T13:08:12;99893.53;;;7.46;45.98
32131;BME280;18639;50.716;7.086;2023-03-11T13:10:49;99899.66;;;7.43;45.24
32131;BME280;18639;50.716;7.086;2023-03-11T13:13:40;99911.53;;;7.46;46.40
32131;BME280;18639;50.716;7.086;2023-03-11T13:18:40;99892.06;;;7.42;46.31
32131;BME280;18639;50.716;7.086;2023-03-11T13:38:16;99903.50;;;6.92;48.33
32131;BME280;18639;50.716;7.086;2023-03-11T13:40:45;99905.63;;;7.15;48.38
32131;BME280;18639;50.716;7.086;2023-03-11T13:43:22;99903.50;;;7.22;49.32
32131;BME280;18639;50.716;7.086;2023-03-11T13:46:10;99902.66;;;7.22;51.41
32131;BME280;18639;50.716;7.086;2023-03-11T13:48:49;99923.31;;;7.20;48.99
32131;BME280;18639;50.716;7.086;2023-03-11T13:51:29;99913.94;;;7.05;48.92
32131;BME280;18639;50.716;7.086;2023-03-11T13:56:44;99876.94;;;6.48;48.37
32131;BME280;18639;50.716;7.086;2023-03-11T13:59:22;99924.09;;;6.76;49.56
32131;BME280;18639;50.716;7.086;2023-03-11T14:01:52;99905.72;;;6.53;49.35
32131;BME280;18639;50.716;7.086;2023-03-11T14:04:25;99905.72;;;6.68;51.10
32131;BME280;18639;50.716;7.086;2023-03-11T14:06:51;99918.88;;;6.78;49.30
32131;BME280;18639;50.716;7.086;2023-03-11T14:09:18;99894.41;;;6.57;48.31
32131;BME280;18639;50.716;7.086;2023-03-11T14:11:45;99900.09;;;6.62;49.61
32131;BME280;18639;50.716;7.086;2023-03-11T14:17:18;99910.50;;;6.74;48.93
32131;BME280;18639;50.716;7.086;2023-03-11T14:22:37;99904.03;;;6.83;49.46
32131;BME280;18639;50.716;7.086;2023-03-11T14:25:07;99904.38;;;6.77;48.71
32131;BME280;18639;50.716;7.086;2023-03-11T14:27:34;99918.34;;;6.87;49.73
32131;BME280;18639;50.716;7.086;2023-03-11T14:29:59;99856.88;;;6.54;49.65
32131;BME280;18639;50.716;7.086;2023-03-11T14:32:32;99913.16;;;6.89;50.30